createdAt,value
2022-12-15T00:00:18.243Z,54.03
2022-12-15T00:03:03.709Z,54.10
2022-12-15T00:05:53.743Z,62.77
2022-12-15T00:08:55.619Z,56.08
2022-12-15T00:11:55.733Z,65.33
2022-12-15T00:14:57.684Z,62.42
2022-12-15T00:17:57.414Z,72.53
2022-12-15T00:20:43.497Z,70.30
2022-12-15T00:23:31.438Z,72.17
2022-12-15T00:41:02.034Z,79.50
2022-12-15T00:43:33.595Z,69.93
2022-12-15T00:46:19.519Z,66.37
2022-12-15T00:48:46.707Z,63.13
2022-12-15T00:51:14.114Z,73.87
2022-12-15T00:54:00.317Z,65.60
2022-12-15T00:56:45.643Z,65.57
2022-12-15T01:02:43.688Z,56.57
2022-12-15T01:05:26.956Z,67.87
2022-12-15T01:13:50.079Z,67.30
2022-12-15T01:16:35.768Z,63.03
2022-12-15T01:19:22.170Z,65.97
2022-12-15T01:21:49.592Z,67.03
2022-12-15T01:24:16.255Z,77.77
2022-12-15T01:26:42.849Z,76.10
2022-12-15T01:29:24.066Z,65.37
2022-12-15T01:31:50.815Z,68.73
2022-12-15T01:34:19.951Z,68.67
2022-12-15T01:36:46.857Z,62.70
2022-12-15T01:39:13.596Z,76.07
2022-12-15T01:41:40.170Z,69.60
2022-12-15T01:44:14.975Z,81.43
2022-12-15T01:46:41.649Z,71.33
2022-12-15T01:49:18.256Z,70.27
2022-12-15T01:51:48.670Z,50.60
2022-12-15T01:54:19.254Z,77.43
2022-12-15T01:56:49.396Z,70.20
2022-12-15T01:59:20.636Z,60.75
2022-12-15T02:01:49.769Z,60.73
2022-12-15T02:04:18.504Z,67.27
2022-12-15T02:06:45.087Z,76.57
2022-12-15T02:09:11.753Z,58.67
2022-12-15T02:12:06.531Z,66.80
2022-12-15T02:15:03.394Z,65.20
2022-12-15T02:18:10.404Z,57.63
2022-12-15T02:21:02.775Z,70.20
2022-12-15T02:23:53.690Z,60.30
2022-12-15T02:26:45.230Z,63.13
2022-12-15T02:29:39.588Z,70.83
2022-12-15T02:32:28.007Z,64.30
2022-12-15T02:35:02.528Z,55.20
2022-12-15T02:37:39.856Z,60.30
2022-12-15T02:40:08.834Z,55.57
2022-12-15T02:42:38.971Z,55.03
2022-12-15T02:45:14.362Z,55.55
2022-12-15T02:48:17.826Z,61.43
2022-12-15T02:50:51.658Z,56.10
2022-12-15T02:53:36.459Z,59.63
2022-12-15T02:56:25.242Z,53.10
2022-12-15T02:59:13.300Z,54.10
2022-12-15T03:01:57.173Z,60.43
2022-12-15T03:04:25.835Z,41.20
2022-12-15T03:07:01.611Z,67.23
2022-12-15T03:09:28.565Z,65.83
2022-12-15T03:11:55.143Z,69.10
2022-12-15T03:14:21.902Z,66.13
2022-12-15T03:17:00.535Z,58.40
2022-12-15T03:19:27.341Z,62.23
2022-12-15T03:21:55.337Z,60.10
2022-12-15T03:24:22.017Z,59.80
2022-12-15T03:26:50.002Z,58.43
2022-12-15T03:29:17.603Z,75.37
2022-12-15T03:31:56.851Z,62.50
2022-12-15T03:34:23.492Z,60.50
2022-12-15T03:36:50.169Z,61.97
2022-12-15T03:39:16.775Z,64.67
2022-12-15T03:41:46.311Z,62.53
2022-12-15T03:44:12.942Z,63.40
2022-12-15T03:47:01.335Z,64.60
2022-12-15T03:49:29.814Z,57.10
2022-12-15T03:51:56.376Z,60.93
2022-12-15T03:54:22.981Z,53.20
2022-12-15T03:56:50.034Z,60.27
2022-12-15T03:59:16.651Z,44.33
2022-12-15T04:01:48.996Z,60.20
2022-12-15T04:04:18.660Z,53.80
2022-12-15T04:06:45.357Z,60.27
2022-12-15T04:09:11.932Z,55.57
2022-12-15T04:11:38.544Z,58.13
2022-12-15T04:14:05.158Z,59.00
2022-12-15T04:16:40.491Z,49.73
2022-12-15T04:19:27.991Z,71.10
2022-12-15T04:22:17.905Z,57.23
2022-12-15T04:25:03.334Z,54.60
2022-12-15T04:27:48.634Z,51.43
2022-12-15T04:30:39.832Z,65.23
2022-12-15T04:33:29.199Z,58.57
2022-12-15T04:36:16.258Z,52.63
2022-12-15T04:39:01.447Z,53.03
2022-12-15T04:41:46.626Z,49.77
2022-12-15T04:44:31.768Z,53.43
2022-12-15T04:47:17.689Z,49.23
2022-12-15T04:50:03.016Z,43.27
2022-12-15T04:52:48.974Z,53.30
2022-12-15T04:55:34.449Z,46.83
2022-12-15T04:58:31.726Z,56.63
2022-12-15T05:07:30.798Z,52.05
2022-12-15T05:13:31.060Z,43.90
2022-12-15T05:19:28.328Z,49.97
2022-12-15T05:34:04.904Z,48.37
2022-12-15T05:36:32.424Z,58.03
2022-12-15T05:38:59.147Z,51.20
2022-12-15T05:41:25.716Z,45.83
2022-12-15T05:43:52.325Z,61.13
2022-12-15T05:46:25.771Z,46.80
2022-12-15T05:48:52.392Z,53.10
2022-12-15T05:51:18.978Z,52.37
2022-12-15T05:53:45.608Z,49.60
2022-12-15T05:56:14.090Z,55.93
2022-12-15T05:58:45.095Z,59.43
2022-12-15T06:03:48.440Z,62.10
2022-12-15T06:06:15.017Z,42.63
2022-12-15T06:08:42.748Z,61.50
2022-12-15T06:11:14.262Z,72.23
2022-12-15T06:13:41.341Z,60.10
2022-12-15T06:16:20.357Z,69.97
2022-12-15T06:18:52.723Z,48.77
2022-12-15T06:21:23.662Z,16.53
2022-12-15T06:23:50.692Z,73.47
2022-12-15T06:26:25.767Z,53.53
2022-12-15T06:28:52.813Z,49.43
2022-12-15T06:31:22.905Z,69.20
2022-12-15T06:33:51.651Z,71.45
2022-12-15T06:36:20.520Z,68.43
2022-12-15T06:38:50.003Z,81.60
2022-12-15T06:41:19.040Z,58.53
2022-12-15T06:43:53.407Z,78.73
2022-12-15T06:46:20.174Z,73.57
2022-12-15T06:48:47.426Z,89.07
2022-12-15T06:51:17.436Z,75.43
2022-12-15T06:53:53.020Z,69.05
2022-12-15T06:56:30.594Z,75.80
2022-12-15T06:58:59.958Z,67.88
2022-12-15T07:01:27.144Z,75.50
2022-12-15T07:12:32.105Z,84.07
2022-12-15T07:14:58.729Z,95.70
2022-12-15T07:17:25.338Z,93.53
2022-12-15T07:19:51.914Z,83.00
2022-12-15T07:22:18.590Z,95.47
2022-12-15T07:27:29.915Z,88.70
2022-12-15T07:29:56.539Z,102.93
2022-12-15T07:32:23.406Z,99.23
2022-12-15T07:34:50.086Z,72.00
2022-12-15T07:37:16.792Z,102.87
2022-12-15T07:40:04.926Z,95.83
2022-12-15T07:42:32.151Z,97.33
2022-12-15T07:44:58.747Z,102.33
2022-12-15T07:47:25.376Z,86.97
2022-12-15T07:49:51.967Z,95.07
2022-12-15T07:52:18.662Z,105.70
2022-12-15T07:57:28.528Z,58.93
2022-12-15T07:59:55.158Z,77.97
2022-12-15T08:02:22.013Z,87.60
2022-12-15T08:04:48.978Z,92.10
2022-12-15T08:07:15.582Z,27.03
2022-12-15T08:09:42.161Z,99.07
2022-12-15T08:12:08.798Z,94.17
2022-12-15T08:14:35.414Z,106.77
2022-12-15T08:17:02.237Z,98.57
2022-12-15T08:19:30.654Z,101.93
2022-12-15T08:21:57.506Z,109.30
2022-12-15T08:24:24.117Z,113.93
2022-12-15T08:26:50.830Z,101.30
2022-12-15T08:29:49.494Z,107.37
2022-12-15T08:32:05.514Z,106.97
2022-12-15T08:34:32.210Z,104.40
2022-12-15T08:36:58.810Z,107.28
2022-12-15T08:39:25.445Z,112.82
2022-12-15T08:41:52.058Z,110.20
2022-12-15T08:44:18.757Z,104.65
2022-12-15T08:46:45.407Z,97.57
2022-12-15T08:49:15.343Z,100.72
2022-12-15T08:51:46.605Z,91.23
2022-12-15T08:54:19.200Z,55.35
2022-12-15T08:56:45.878Z,116.07
2022-12-15T08:59:12.548Z,95.77
2022-12-15T09:01:40.361Z,93.72
2022-12-15T09:04:07.389Z,91.18
2022-12-15T09:06:42.431Z,106.07
2022-12-15T09:09:13.441Z,101.00
2022-12-15T09:11:40.235Z,79.37
2022-12-15T09:14:07.403Z,89.40
2022-12-15T09:16:34.241Z,63.83
2022-12-15T09:19:00.895Z,45.43
2022-12-15T09:24:18.366Z,27.27
2022-12-15T09:27:00.325Z,53.63
2022-12-15T09:29:27.014Z,48.10
2022-12-15T09:31:53.580Z,105.20
2022-12-15T09:34:20.264Z,80.78
2022-12-15T09:36:47.042Z,80.43
2022-12-15T09:39:16.211Z,109.90
2022-12-15T09:47:40.839Z,99.70
2022-12-15T09:50:12.204Z,79.13
2022-12-15T09:52:49.192Z,97.25
2022-12-15T09:55:18.147Z,110.55
2022-12-15T09:57:55.377Z,99.75
2022-12-15T10:03:05.152Z,85.03
2022-12-15T10:06:16.133Z,77.95
2022-12-15T10:08:57.239Z,75.20
2022-12-15T10:11:33.598Z,68.18
2022-12-15T10:14:12.326Z,89.13
2022-12-15T10:17:03.357Z,88.85
2022-12-15T10:19:40.478Z,85.10
2022-12-15T10:22:21.489Z,79.40
2022-12-15T10:27:59.376Z,55.63
2022-12-15T10:41:16.701Z,67.60
2022-12-15T10:43:45.280Z,49.97
2022-12-15T10:46:18.652Z,47.53
2022-12-15T10:48:50.954Z,74.38
2022-12-15T10:54:19.344Z,71.15
2022-12-15T10:59:43.123Z,46.38
2022-12-15T11:05:18.190Z,53.72
2022-12-15T11:07:51.895Z,58.47
2022-12-15T11:10:25.456Z,61.17
2022-12-15T11:13:13.603Z,58.00
2022-12-15T11:15:51.288Z,55.88
2022-12-15T11:18:23.564Z,51.40
2022-12-15T11:24:14.315Z,55.13
2022-12-15T11:26:44.354Z,54.42
2022-12-15T11:29:37.702Z,54.00
2022-12-15T11:32:07.437Z,56.40
2022-12-15T11:34:41.810Z,45.85
2022-12-15T11:37:32.447Z,44.92
2022-12-15T11:40:23.859Z,57.75
2022-12-15T11:42:53.507Z,55.35
2022-12-15T11:45:25.782Z,61.58
2022-12-15T11:56:42.196Z,58.15
2022-12-15T11:59:11.153Z,49.08
2022-12-15T12:04:58.342Z,55.65
2022-12-15T12:07:49.076Z,55.25
2022-12-15T12:13:34.043Z,56.72
2022-12-15T12:16:06.664Z,51.17
2022-12-15T12:18:41.676Z,50.70
2022-12-15T12:21:12.351Z,48.05
2022-12-15T12:41:06.148Z,48.33
2022-12-15T12:43:50.491Z,55.97
2022-12-15T12:46:25.584Z,54.10
2022-12-15T12:49:04.273Z,58.17
2022-12-15T12:51:38.803Z,53.35
2022-12-15T12:54:36.577Z,54.38
2022-12-15T12:57:29.319Z,57.63
2022-12-15T13:00:02.208Z,48.63
2022-12-15T13:02:29.400Z,60.97
2022-12-15T13:05:00.377Z,53.22
2022-12-15T13:07:34.963Z,48.88
2022-12-15T13:10:22.555Z,47.10
2022-12-15T13:12:54.811Z,51.17
2022-12-15T13:15:27.591Z,51.33
2022-12-15T13:18:16.934Z,53.95
2022-12-15T13:20:45.151Z,49.72
2022-12-15T13:23:21.383Z,52.78
2022-12-15T13:25:56.879Z,50.42
2022-12-15T13:28:25.252Z,49.58
2022-12-15T13:31:16.915Z,48.28
2022-12-15T13:33:50.127Z,45.67
2022-12-15T13:36:40.091Z,51.42
2022-12-15T13:39:12.976Z,48.33
2022-12-15T13:42:07.565Z,48.85
2022-12-15T13:47:20.473Z,48.83
2022-12-15T13:50:19.715Z,52.28
2022-12-15T13:58:16.844Z,51.75
2022-12-15T14:00:54.764Z,57.13
2022-12-15T14:03:22.042Z,59.45
2022-12-15T14:05:53.241Z,55.88
2022-12-15T14:16:44.256Z,60.35
2022-12-15T14:19:15.027Z,55.45
2022-12-15T14:24:48.037Z,56.75
2022-12-15T14:27:27.105Z,50.30
2022-12-15T14:30:15.991Z,57.40
2022-12-15T14:32:44.462Z,58.08
2022-12-15T14:35:36.258Z,60.25
2022-12-15T14:38:06.953Z,52.55
2022-12-15T14:43:04.949Z,51.00
2022-12-15T14:45:32.312Z,54.58
2022-12-15T14:50:59.780Z,56.58
2022-12-15T14:53:31.078Z,53.42
2022-12-15T14:55:59.224Z,56.88
2022-12-15T14:58:36.256Z,72.10
2022-12-15T15:01:20.699Z,52.83
2022-12-15T15:03:04.869Z,51.47
2022-12-15T15:03:06.811Z,64.88
2022-12-15T15:03:57.085Z,69.00
2022-12-15T15:06:37.733Z,57.58
2022-12-15T15:09:25.256Z,60.63
2022-12-15T15:11:59.716Z,73.82
2022-12-15T15:14:33.836Z,70.30
2022-12-15T15:17:31.120Z,70.95
2022-12-15T15:20:00.532Z,67.90
2022-12-15T15:22:40.845Z,73.65
2022-12-15T15:25:28.134Z,65.65
2022-12-15T15:28:09.457Z,72.65
2022-12-15T15:30:48.523Z,52.08
2022-12-15T15:33:15.953Z,59.38
2022-12-15T15:35:43.893Z,82.80
2022-12-15T15:43:51.846Z,53.83
2022-12-15T15:46:20.201Z,87.47
2022-12-15T15:48:50.111Z,74.10
2022-12-15T15:51:16.817Z,87.57
2022-12-15T15:53:43.606Z,70.95
2022-12-15T15:56:15.984Z,85.57
2022-12-15T15:58:43.720Z,74.43
2022-12-15T16:01:13.385Z,79.83
2022-12-15T16:03:40.841Z,87.47
2022-12-15T16:06:18.552Z,93.30
2022-12-15T16:08:47.145Z,86.88
2022-12-15T16:11:13.882Z,74.77
2022-12-15T16:13:40.532Z,65.75
2022-12-15T16:16:23.385Z,88.37
2022-12-15T16:18:50.275Z,83.03
2022-12-15T16:21:17.940Z,69.20
2022-12-15T16:23:46.709Z,84.23
2022-12-15T16:26:15.863Z,75.43
2022-12-15T16:28:42.556Z,70.85
2022-12-15T16:31:15.639Z,92.33
2022-12-15T16:33:42.323Z,100.43
2022-12-15T16:36:13.520Z,97.17
2022-12-15T16:38:41.118Z,83.13
2022-12-15T16:41:10.664Z,87.05
2022-12-15T16:43:41.562Z,91.10
2022-12-15T16:46:31.607Z,98.77
2022-12-15T16:48:58.286Z,83.47
2022-12-15T16:51:39.070Z,80.13
2022-12-15T16:56:32.800Z,92.90
2022-12-15T16:59:31.564Z,73.23
2022-12-15T17:04:25.874Z,96.38
2022-12-15T17:06:52.964Z,83.35
2022-12-15T17:09:22.473Z,92.35
2022-12-15T17:11:49.153Z,93.55
2022-12-15T17:14:16.114Z,84.05
2022-12-15T17:17:00.222Z,96.67
2022-12-15T17:19:26.818Z,68.22
2022-12-15T17:21:53.502Z,111.63
2022-12-15T17:24:21.667Z,89.20
2022-12-15T17:26:48.434Z,99.23
2022-12-15T17:29:25.791Z,93.17
2022-12-15T17:34:25.665Z,91.85
2022-12-15T17:36:52.647Z,105.43
2022-12-15T17:39:20.965Z,88.30
2022-12-15T17:42:00.040Z,83.13
2022-12-15T17:44:38.264Z,92.72
2022-12-15T17:47:07.847Z,101.57
2022-12-15T17:49:51.774Z,94.50
2022-12-15T17:52:24.874Z,92.03
2022-12-15T17:54:51.756Z,87.97
2022-12-15T17:57:18.449Z,76.88
2022-12-15T17:59:45.136Z,98.82
2022-12-15T18:02:17.534Z,101.73
2022-12-15T18:07:22.938Z,101.38
2022-12-15T18:09:50.870Z,103.87
2022-12-15T18:12:19.781Z,111.30
2022-12-15T18:14:46.394Z,105.95
2022-12-15T18:17:12.979Z,105.77
2022-12-15T18:19:45.827Z,103.70
2022-12-15T18:22:15.531Z,107.27
2022-12-15T18:24:42.201Z,117.77
2022-12-15T18:27:21.164Z,94.03
2022-12-15T18:29:47.752Z,105.10
2022-12-15T18:32:14.416Z,89.67
2022-12-15T18:34:46.883Z,106.37
2022-12-15T18:37:17.817Z,105.53
2022-12-15T18:39:45.084Z,100.57
2022-12-15T18:42:18.635Z,112.82
2022-12-15T18:44:50.400Z,109.50
2022-12-15T18:47:18.941Z,111.17
2022-12-15T18:49:45.981Z,98.57
2022-12-15T18:55:15.542Z,112.70
2022-12-15T18:57:42.462Z,120.47
2022-12-15T19:00:15.172Z,109.03
2022-12-15T19:02:42.621Z,120.23
2022-12-15T19:05:15.807Z,116.47
2022-12-15T19:07:42.399Z,107.77
2022-12-15T19:10:28.373Z,115.37
2022-12-15T19:12:58.520Z,113.17
2022-12-15T19:15:25.620Z,103.72
2022-12-15T19:18:10.978Z,121.53
2022-12-15T19:20:56.668Z,114.77
2022-12-15T19:23:23.325Z,126.77
2022-12-15T19:25:50.395Z,113.03
2022-12-15T19:30:54.385Z,129.57
2022-12-15T19:33:21.841Z,121.53
2022-12-15T19:35:51.160Z,113.97
2022-12-15T19:38:27.235Z,116.50
2022-12-15T19:40:54.733Z,118.57
2022-12-15T19:43:24.735Z,122.00
2022-12-15T19:45:52.043Z,130.65
2022-12-15T19:48:23.322Z,115.83
2022-12-15T19:50:51.829Z,124.77
2022-12-15T19:53:24.151Z,124.20
2022-12-15T19:55:54.073Z,121.60
2022-12-15T19:58:26.961Z,101.45
2022-12-15T20:00:58.302Z,113.20
2022-12-15T20:03:26.074Z,111.53
2022-12-15T20:05:53.937Z,107.30
2022-12-15T20:08:27.063Z,113.43
2022-12-15T20:10:55.204Z,110.73
2022-12-15T20:15:53.650Z,116.30
2022-12-15T20:18:20.281Z,109.23
2022-12-15T20:20:48.065Z,131.10
2022-12-15T20:23:19.230Z,123.43
2022-12-15T20:25:45.912Z,114.22
2022-12-15T20:28:18.732Z,117.97
2022-12-15T20:30:46.234Z,123.43
2022-12-15T20:33:13.148Z,112.97
2022-12-15T20:35:40.990Z,118.10
2022-12-15T20:38:31.379Z,125.60
2022-12-15T20:40:59.137Z,110.35
2022-12-15T20:48:42.661Z,133.43
2022-12-15T20:51:23.251Z,109.70
2022-12-15T20:53:51.003Z,116.32
2022-12-15T20:56:20.804Z,113.77
2022-12-15T20:58:47.821Z,115.57
2022-12-15T21:01:20.119Z,113.37
2022-12-15T21:03:47.858Z,154.43
2022-12-15T21:09:03.165Z,145.15
2022-12-15T21:11:32.324Z,182.00
2022-12-15T21:14:03.993Z,180.60
2022-12-15T21:16:31.970Z,121.63
2022-12-15T21:21:35.652Z,113.50
2022-12-15T21:24:13.788Z,139.67
2022-12-15T21:26:40.375Z,119.07
2022-12-15T21:29:12.757Z,149.53
2022-12-15T21:31:39.375Z,132.33
2022-12-15T21:34:06.050Z,128.30
2022-12-15T21:36:32.896Z,96.60
2022-12-15T21:38:59.485Z,135.27
2022-12-15T21:41:26.123Z,124.50
2022-12-15T21:43:52.724Z,127.77
2022-12-15T21:46:28.579Z,113.00
2022-12-15T21:49:02.686Z,123.10
2022-12-15T21:51:33.476Z,111.23
2022-12-15T21:54:00.565Z,93.43
2022-12-15T21:56:28.306Z,118.67
2022-12-15T21:58:56.234Z,103.87
2022-12-15T22:01:24.634Z,100.17
2022-12-15T22:03:56.430Z,99.33
2022-12-15T22:06:28.572Z,99.70
2022-12-15T22:08:58.556Z,107.07
2022-12-15T22:11:26.699Z,106.07
2022-12-15T22:13:55.106Z,110.40
2022-12-15T22:16:22.110Z,106.03
2022-12-15T22:18:54.943Z,113.80
2022-12-15T22:21:22.654Z,107.97
2022-12-15T22:23:50.701Z,111.43
2022-12-15T22:26:27.014Z,101.93
2022-12-15T22:28:55.776Z,117.87
2022-12-15T22:31:22.485Z,124.63
2022-12-15T22:33:49.091Z,127.77
2022-12-15T22:36:15.702Z,129.60
2022-12-15T22:38:42.363Z,177.60
2022-12-15T22:41:18.760Z,165.17
2022-12-15T22:43:53.207Z,117.13
2022-12-15T22:46:22.844Z,139.87
2022-12-15T22:48:50.138Z,112.00
2022-12-15T22:51:18.340Z,142.97
2022-12-15T22:53:45.605Z,227.23
2022-12-15T22:56:23.889Z,101.97
2022-12-15T22:58:55.465Z,127.13
2022-12-15T23:01:22.189Z,146.17
2022-12-15T23:03:51.081Z,112.00
2022-12-15T23:06:18.310Z,108.27
2022-12-15T23:08:44.879Z,115.83
2022-12-15T23:11:30.188Z,111.93
2022-12-15T23:13:56.792Z,104.00
2022-12-15T23:16:23.855Z,99.73
2022-12-15T23:18:53.847Z,95.60
2022-12-15T23:24:02.413Z,100.67
2022-12-15T23:26:29.029Z,96.70
2022-12-15T23:28:55.735Z,102.07
2022-12-15T23:31:22.822Z,102.10
2022-12-15T23:33:50.019Z,107.20
2022-12-15T23:39:05.082Z,110.97
2022-12-15T23:41:31.683Z,75.20
2022-12-15T23:43:58.315Z,112.90
2022-12-15T23:46:24.961Z,102.07
2022-12-15T23:48:51.949Z,104.17
2022-12-15T23:59:32.516Z,93.00
